createdAt,value
2023-02-28T09:52:30.248Z,6.82
2023-02-28T09:55:03.957Z,3.58
2023-02-28T09:57:40.172Z,5.50
2023-02-28T10:00:19.588Z,6.45
2023-02-28T10:03:19.504Z,4.63
2023-02-28T10:05:55.544Z,8.23
2023-02-28T10:08:30.944Z,5.78
2023-02-28T10:13:38.858Z,6.22
2023-02-28T10:16:13.705Z,6.22
2023-02-28T10:18:48.263Z,6.93
2023-02-28T10:21:23.315Z,14.90
2023-02-28T10:24:06.667Z,6.77
2023-02-28T10:26:36.240Z,8.93
2023-02-28T10:29:06.115Z,10.68
2023-02-28T10:31:36.141Z,8.95
2023-02-28T10:34:07.279Z,7.70
2023-02-28T10:36:36.819Z,8.07
2023-02-28T10:39:38.691Z,10.45
2023-02-28T10:42:21.157Z,10.25
2023-02-28T10:44:50.526Z,9.77
2023-02-28T10:47:21.877Z,10.43
2023-02-28T10:49:54.098Z,7.72
2023-02-28T10:52:38.618Z,10.07
2023-02-28T10:55:23.186Z,7.45
2023-02-28T10:57:53.545Z,6.53
2023-02-28T11:00:26.460Z,10.73
2023-02-28T11:02:56.192Z,8.18
2023-02-28T11:05:29.721Z,5.88
2023-02-28T11:08:07.231Z,6.88
2023-02-28T11:10:38.398Z,5.53
2023-02-28T11:13:08.486Z,6.13
2023-02-28T11:15:38.331Z,5.50
2023-02-28T11:18:23.724Z,6.43
2023-02-28T11:20:55.288Z,5.40
2023-02-28T11:23:29.286Z,5.22
2023-02-28T11:26:03.127Z,7.50
2023-02-28T11:31:07.786Z,5.78
2023-02-28T11:33:46.199Z,5.80
2023-02-28T11:36:20.245Z,5.75
2023-02-28T11:38:51.654Z,4.80
2023-02-28T11:41:45.485Z,5.55
2023-02-28T11:44:34.593Z,6.95
2023-02-28T11:47:10.292Z,5.63
2023-02-28T11:49:49.554Z,5.32
2023-02-28T11:52:31.714Z,7.15
2023-02-28T11:55:10.273Z,4.47
2023-02-28T11:57:55.571Z,4.95
2023-02-28T12:00:41.325Z,6.00
2023-02-28T12:03:28.735Z,5.38
2023-02-28T12:06:11.361Z,5.13
2023-02-28T12:08:53.688Z,4.63
2023-02-28T12:11:35.249Z,3.88
2023-02-28T12:14:35.249Z,4.18
2023-02-28T12:17:17.072Z,6.18
2023-02-28T12:19:56.246Z,4.63
2023-02-28T12:22:32.973Z,6.13
2023-02-28T12:25:41.964Z,4.22
2023-02-28T12:28:14.368Z,5.10
2023-02-28T12:30:53.239Z,5.63
2023-02-28T12:33:26.996Z,4.65
2023-02-28T12:35:59.083Z,5.57
2023-02-28T12:38:31.865Z,5.22
2023-02-28T12:41:05.280Z,4.35
2023-02-28T12:43:39.012Z,5.43
2023-02-28T12:46:15.633Z,4.40
2023-02-28T12:48:48.896Z,4.60
2023-02-28T12:51:19.921Z,4.90
2023-02-28T12:54:06.073Z,6.10
2023-02-28T12:56:46.981Z,9.80
2023-02-28T12:59:25.096Z,6.18
2023-02-28T13:02:22.439Z,5.88
2023-02-28T13:05:27.453Z,5.38
2023-02-28T13:08:26.139Z,4.70
2023-02-28T13:10:56.352Z,4.22
2023-02-28T13:13:30.723Z,4.40
2023-02-28T13:16:06.512Z,5.15
2023-02-28T13:18:40.671Z,3.40
2023-02-28T13:21:23.764Z,4.90
2023-02-28T13:24:02.262Z,5.47
2023-02-28T13:27:10.542Z,5.18
2023-02-28T13:29:41.547Z,9.85
2023-02-28T13:32:37.680Z,4.65
2023-02-28T13:35:46.127Z,4.30
2023-02-28T13:38:36.874Z,5.15
2023-02-28T13:41:43.536Z,5.90
2023-02-28T13:44:15.705Z,4.30
2023-02-28T13:47:23.332Z,5.45
2023-02-28T13:49:54.393Z,4.70
2023-02-28T13:52:27.290Z,4.72
2023-02-28T13:55:29.495Z,4.78
2023-02-28T13:58:25.068Z,5.68
2023-02-28T14:01:12.728Z,4.72
2023-02-28T14:04:09.731Z,5.80
2023-02-28T14:06:41.206Z,5.88
2023-02-28T14:09:26.091Z,7.57
2023-02-28T14:11:56.170Z,5.50
2023-02-28T14:15:02.010Z,5.35
2023-02-28T14:17:31.982Z,5.05
2023-02-28T14:20:01.858Z,6.95
2023-02-28T14:22:55.059Z,5.28
2023-02-28T14:25:35.147Z,6.13
2023-02-28T14:28:16.149Z,6.00
2023-02-28T14:31:02.968Z,4.93
2023-02-28T14:33:49.755Z,4.90
2023-02-28T14:36:27.507Z,9.05
2023-02-28T14:39:00.323Z,7.28
2023-02-28T14:41:36.568Z,4.82
2023-02-28T14:44:17.021Z,6.00
2023-02-28T14:46:48.315Z,6.10
2023-02-28T14:49:22.996Z,6.25
2023-02-28T14:52:06.986Z,6.22
2023-02-28T14:54:36.730Z,7.20
2023-02-28T14:57:07.773Z,6.45
2023-02-28T14:59:38.723Z,6.43
2023-02-28T15:02:22.672Z,5.40
2023-02-28T15:05:00.381Z,7.72
2023-02-28T15:07:32.849Z,5.65
2023-02-28T15:10:19.840Z,8.88
2023-02-28T15:12:54.982Z,8.18
2023-02-28T15:15:31.944Z,5.72
2023-02-28T15:18:16.326Z,5.78
2023-02-28T15:20:47.569Z,7.35
2023-02-28T15:23:18.069Z,4.68
2023-02-28T15:25:48.141Z,7.25
2023-02-28T15:28:22.330Z,6.03
2023-02-28T15:31:01.105Z,4.97
2023-02-28T15:33:32.290Z,6.43
2023-02-28T15:36:18.643Z,8.15
2023-02-28T15:38:55.080Z,6.93
2023-02-28T15:41:29.629Z,5.80
2023-02-28T15:44:27.941Z,11.55
2023-02-28T15:47:02.499Z,9.27
2023-02-28T15:49:42.737Z,9.05
2023-02-28T15:52:20.398Z,10.10
2023-02-28T15:57:24.278Z,11.77
2023-02-28T15:59:58.247Z,9.70
2023-02-28T16:02:35.195Z,13.05
2023-02-28T16:05:28.973Z,8.73
2023-02-28T16:07:59.890Z,8.98
2023-02-28T16:10:31.099Z,12.55
2023-02-28T16:13:00.949Z,10.38
2023-02-28T16:15:35.130Z,16.50
2023-02-28T16:18:05.009Z,22.53
2023-02-28T16:20:34.602Z,19.67
2023-02-28T16:23:04.255Z,20.48
2023-02-28T16:25:40.726Z,21.02
2023-02-28T16:28:17.873Z,13.70
2023-02-28T16:30:48.877Z,14.35
2023-02-28T16:33:18.745Z,14.15
2023-02-28T16:35:48.017Z,52.90
2023-02-28T16:38:17.624Z,79.93
2023-02-28T16:40:47.609Z,59.97
2023-02-28T16:43:22.222Z,56.03
2023-02-28T16:46:01.201Z,51.63
2023-02-28T16:48:31.808Z,60.00
2023-02-28T16:51:01.169Z,53.28
2023-02-28T16:53:30.725Z,45.80
2023-02-28T16:56:02.973Z,57.30
2023-02-28T16:58:32.811Z,49.05
2023-02-28T17:01:03.471Z,62.13
2023-02-28T17:03:34.228Z,61.13
2023-02-28T17:06:03.748Z,52.53
2023-02-28T17:08:34.259Z,64.38
2023-02-28T17:11:03.808Z,62.53
2023-02-28T17:13:35.522Z,50.35
2023-02-28T17:16:06.912Z,56.28
2023-02-28T17:18:37.492Z,57.10
2023-02-28T17:21:11.852Z,63.65
2023-02-28T17:23:41.754Z,69.15
2023-02-28T17:26:15.690Z,68.13
2023-02-28T17:28:45.599Z,62.03
2023-02-28T17:31:18.590Z,76.50
2023-02-28T17:33:48.222Z,72.95
2023-02-28T17:36:19.973Z,74.38
2023-02-28T17:38:50.001Z,80.15
2023-02-28T17:41:19.224Z,92.05
2023-02-28T17:43:48.917Z,98.70
2023-02-28T17:46:21.724Z,113.45
2023-02-28T17:48:52.347Z,105.93
2023-02-28T17:51:24.840Z,112.82
2023-02-28T17:53:54.752Z,103.32
2023-02-28T17:56:25.959Z,103.18
2023-02-28T17:58:57.045Z,90.07
2023-02-28T18:01:28.496Z,98.88
2023-02-28T18:03:58.563Z,93.05
2023-02-28T18:06:33.318Z,109.07
2023-02-28T18:09:03.220Z,115.05
2023-02-28T18:11:44.590Z,112.00
2023-02-28T18:14:14.390Z,113.30
2023-02-28T18:16:45.827Z,119.28
2023-02-28T18:19:17.790Z,96.18
2023-02-28T18:21:49.779Z,91.50
2023-02-28T18:24:20.674Z,91.60
2023-02-28T18:26:51.104Z,76.95
2023-02-28T18:29:23.157Z,98.18
2023-02-28T18:31:55.028Z,76.97
2023-02-28T18:34:26.146Z,94.80
2023-02-28T18:36:56.468Z,93.13
2023-02-28T18:39:26.852Z,109.22
2023-02-28T18:41:57.824Z,103.65
2023-02-28T18:44:27.667Z,87.90
2023-02-28T18:46:58.479Z,84.40
2023-02-28T18:49:28.226Z,90.35
2023-02-28T18:51:58.694Z,96.88
2023-02-28T18:54:28.682Z,92.50
2023-02-28T18:56:58.023Z,112.05
2023-02-28T18:59:28.345Z,129.30
2023-02-28T19:01:59.458Z,121.95
2023-02-28T19:04:29.138Z,147.02
2023-02-28T19:06:59.835Z,124.60
2023-02-28T19:09:32.970Z,119.70
2023-02-28T19:12:02.447Z,125.25
2023-02-28T19:14:32.480Z,133.45
2023-02-28T19:17:03.480Z,62.58
2023-02-28T19:19:33.195Z,46.55
2023-02-28T19:22:02.629Z,35.75
2023-02-28T19:24:32.415Z,43.58
2023-02-28T19:27:01.846Z,54.70
2023-02-28T19:29:31.477Z,57.67
2023-02-28T19:32:04.228Z,51.28
2023-02-28T19:34:34.792Z,41.38
2023-02-28T19:37:04.069Z,28.80
2023-02-28T19:39:41.272Z,26.77
2023-02-28T19:42:11.187Z,24.80
2023-02-28T19:44:41.479Z,23.23
2023-02-28T19:47:12.391Z,22.92
2023-02-28T19:49:42.462Z,23.02
2023-02-28T19:52:15.087Z,31.13
2023-02-28T19:54:45.306Z,21.40
2023-02-28T19:57:15.138Z,23.38
2023-02-28T19:59:45.710Z,18.33
2023-02-28T20:02:18.608Z,18.88
2023-02-28T20:04:50.011Z,14.73
2023-02-28T20:07:20.825Z,15.18
2023-02-28T20:09:51.050Z,16.55
2023-02-28T20:12:24.429Z,15.52
2023-02-28T20:14:56.142Z,17.90
2023-02-28T20:17:29.653Z,15.82
2023-02-28T20:19:59.359Z,15.88
2023-02-28T20:22:29.014Z,19.42
2023-02-28T20:24:58.663Z,18.58
2023-02-28T20:27:28.552Z,14.13
2023-02-28T20:29:58.344Z,17.55
2023-02-28T20:32:29.547Z,18.50
2023-02-28T20:34:59.239Z,18.27
2023-02-28T20:37:32.376Z,18.80
2023-02-28T20:40:04.467Z,20.13
2023-02-28T20:42:33.721Z,9.70
2023-02-28T20:45:03.578Z,14.10
2023-02-28T20:47:34.293Z,15.10
2023-02-28T20:50:03.903Z,12.70
2023-02-28T20:52:33.173Z,15.60
2023-02-28T20:55:02.891Z,10.15
2023-02-28T20:57:32.728Z,15.05
2023-02-28T21:00:02.447Z,12.15
2023-02-28T21:02:33.318Z,13.18
2023-02-28T21:05:03.224Z,12.63
2023-02-28T21:07:32.722Z,10.73
2023-02-28T21:10:02.639Z,11.00
2023-02-28T21:12:32.181Z,17.92
2023-02-28T21:15:01.941Z,13.57
2023-02-28T21:17:31.357Z,10.02
2023-02-28T21:20:02.405Z,10.30
2023-02-28T21:22:31.883Z,13.30
2023-02-28T21:25:01.433Z,15.82
2023-02-28T21:27:30.803Z,11.52
2023-02-28T21:30:00.394Z,14.00
2023-02-28T21:32:29.773Z,11.48
2023-02-28T21:34:59.321Z,15.93
2023-02-28T21:37:30.091Z,10.23
2023-02-28T21:39:59.664Z,11.60
2023-02-28T21:42:30.281Z,14.15
2023-02-28T21:45:01.069Z,11.65
2023-02-28T21:47:31.243Z,14.70
2023-02-28T21:50:00.885Z,12.85
2023-02-28T21:52:31.566Z,13.20
2023-02-28T21:55:01.228Z,13.95
2023-02-28T21:57:30.534Z,10.85
2023-02-28T22:00:00.306Z,14.55
2023-02-28T22:02:30.446Z,31.58
2023-02-28T22:05:03.606Z,15.60
2023-02-28T22:07:34.235Z,21.35
2023-02-28T22:10:04.098Z,15.82
2023-02-28T22:12:33.504Z,11.63
2023-02-28T22:15:03.014Z,14.00
2023-02-28T22:17:32.327Z,13.25
2023-02-28T22:20:01.845Z,10.57
2023-02-28T22:22:31.148Z,11.32
2023-02-28T22:25:02.084Z,13.45
2023-02-28T22:27:31.550Z,9.23
2023-02-28T22:30:01.622Z,11.02
2023-02-28T22:32:31.067Z,13.07
2023-02-28T22:35:00.824Z,9.18
2023-02-28T22:37:30.051Z,12.15
2023-02-28T22:40:01.128Z,11.07
2023-02-28T22:42:33.425Z,8.48
2023-02-28T22:45:03.188Z,11.60
2023-02-28T22:47:32.590Z,11.15
2023-02-28T22:50:02.324Z,14.70
2023-02-28T22:52:31.532Z,5.88
2023-02-28T22:55:02.827Z,9.52
2023-02-28T22:57:32.058Z,9.23
2023-02-28T23:00:02.266Z,8.95
2023-02-28T23:02:31.634Z,11.27
2023-02-28T23:05:01.237Z,11.25
2023-02-28T23:07:30.533Z,15.35
2023-02-28T23:10:01.526Z,7.95
2023-02-28T23:12:32.555Z,9.68
2023-02-28T23:15:02.308Z,7.78
2023-02-28T23:17:33.876Z,12.10
2023-02-28T23:20:04.037Z,11.75
2023-02-28T23:22:33.418Z,9.13
2023-02-28T23:25:04.846Z,12.60
2023-02-28T23:27:34.849Z,12.07
2023-02-28T23:30:04.814Z,11.82
2023-02-28T23:32:34.125Z,7.15
2023-02-28T23:35:03.794Z,8.38
2023-02-28T23:37:32.995Z,11.57
2023-02-28T23:40:04.572Z,11.63
2023-02-28T23:42:33.949Z,7.88
2023-02-28T23:45:03.688Z,12.52
2023-02-28T23:47:33.190Z,16.15
2023-02-28T23:50:03.083Z,11.98
2023-02-28T23:52:32.417Z,12.23
2023-02-28T23:55:03.554Z,9.38
2023-02-28T23:57:33.016Z,13.57
